createdAt,value
2022-12-18T00:01:34.981Z,88.79
2022-12-18T00:04:09.317Z,89.19
2022-12-18T00:06:37.510Z,88.93
2022-12-18T00:09:05.128Z,89.22
2022-12-18T00:11:33.116Z,89.58
2022-12-18T00:14:02.037Z,89.48
2022-12-18T00:16:31.319Z,89.43
2022-12-18T00:18:59.569Z,89.44
2022-12-18T00:21:28.949Z,89.45
2022-12-18T00:23:56.793Z,89.25
2022-12-18T00:26:34.926Z,89.28
2022-12-18T00:29:09.208Z,89.29
2022-12-18T00:31:38.909Z,89.27
2022-12-18T00:34:06.930Z,89.38
2022-12-18T00:36:35.460Z,89.38
2022-12-18T00:39:05.553Z,89.69
2022-12-18T00:41:52.015Z,89.42
2022-12-18T00:44:20.314Z,89.62
2022-12-18T00:46:49.193Z,89.73
2022-12-18T00:49:19.726Z,89.85
2022-12-18T00:51:48.376Z,89.58
2022-12-18T00:54:16.995Z,90.17
2022-12-18T00:56:49.036Z,89.97
2022-12-18T00:59:19.180Z,90.64
2022-12-18T01:01:48.156Z,90.72
2022-12-18T01:04:16.244Z,90.39
2022-12-18T01:06:46.479Z,90.38
2022-12-18T01:09:14.299Z,90.15
2022-12-18T01:11:41.807Z,90.59
2022-12-18T01:14:09.801Z,90.33
2022-12-18T01:16:38.923Z,89.97
2022-12-18T01:19:06.591Z,89.83
2022-12-18T01:21:34.543Z,90.06
2022-12-18T01:24:05.694Z,90.13
2022-12-18T01:26:33.452Z,89.45
2022-12-18T01:29:00.980Z,89.59
2022-12-18T01:31:32.191Z,89.86
2022-12-18T01:34:02.648Z,89.72
2022-12-18T01:36:33.050Z,89.99
2022-12-18T01:39:03.130Z,89.50
2022-12-18T01:41:51.948Z,89.90
2022-12-18T01:44:47.670Z,89.81
2022-12-18T01:47:21.038Z,89.64
2022-12-18T01:49:48.853Z,89.87
2022-12-18T01:52:18.122Z,89.68
2022-12-18T01:54:46.693Z,90.04
2022-12-18T01:57:14.667Z,89.87
2022-12-18T01:59:46.402Z,89.92
2022-12-18T02:02:14.146Z,90.25
2022-12-18T02:04:46.345Z,90.22
2022-12-18T02:07:55.604Z,89.99
2022-12-18T02:10:32.633Z,90.09
2022-12-18T02:13:08.300Z,89.70
2022-12-18T02:15:44.572Z,89.77
2022-12-18T02:18:22.087Z,90.00
2022-12-18T02:20:59.932Z,90.26
2022-12-18T02:23:55.684Z,90.47
2022-12-18T02:26:39.174Z,90.45
2022-12-18T02:29:22.883Z,90.01
2022-12-18T02:31:54.653Z,90.39
2022-12-18T02:34:27.181Z,90.20
2022-12-18T02:36:58.658Z,90.46
2022-12-18T02:39:28.793Z,90.28
2022-12-18T02:42:08.917Z,90.17
2022-12-18T02:44:50.343Z,90.34
2022-12-18T02:47:24.143Z,90.29
2022-12-18T02:50:13.738Z,90.33
2022-12-18T02:53:11.263Z,90.35
2022-12-18T02:56:04.107Z,90.36
2022-12-18T02:58:49.749Z,90.45
2022-12-18T03:01:46.468Z,90.00
2022-12-18T03:04:32.318Z,89.77
2022-12-18T03:07:04.838Z,89.69
2022-12-18T03:09:40.553Z,90.06
2022-12-18T03:12:26.555Z,89.84
2022-12-18T03:15:14.559Z,89.48
2022-12-18T03:18:08.842Z,89.92
2022-12-18T03:20:40.893Z,90.42
2022-12-18T03:23:14.075Z,90.16
2022-12-18T03:25:46.208Z,90.09
2022-12-18T03:28:20.405Z,90.61
2022-12-18T03:30:59.345Z,90.53
2022-12-18T03:33:32.885Z,90.72
2022-12-18T03:36:00.437Z,90.33
2022-12-18T03:38:28.588Z,90.40
2022-12-18T03:40:56.181Z,90.26
2022-12-18T03:43:41.742Z,90.43
2022-12-18T03:46:38.663Z,90.69
2022-12-18T03:49:14.169Z,90.46
2022-12-18T03:52:11.143Z,90.41
2022-12-18T03:54:42.868Z,90.75
2022-12-18T03:57:19.579Z,90.45
2022-12-18T03:59:54.619Z,90.70
2022-12-18T04:02:26.365Z,90.48
2022-12-18T04:05:00.983Z,91.00
2022-12-18T04:07:28.853Z,90.40
2022-12-18T04:10:02.001Z,90.71
2022-12-18T04:12:32.302Z,91.20
2022-12-18T04:15:00.748Z,90.88
2022-12-18T04:17:28.546Z,90.68
2022-12-18T04:19:56.200Z,91.24
2022-12-18T04:22:25.546Z,91.42
2022-12-18T04:24:58.879Z,91.10
2022-12-18T04:27:33.195Z,91.44
2022-12-18T04:30:00.917Z,91.60
2022-12-18T04:32:28.641Z,91.45
2022-12-18T04:34:56.296Z,91.35
2022-12-18T04:37:24.066Z,91.12
2022-12-18T04:39:52.224Z,91.39
2022-12-18T04:42:27.004Z,91.76
2022-12-18T04:44:54.554Z,91.52
2022-12-18T04:47:22.024Z,91.42
2022-12-18T04:49:49.592Z,92.05
2022-12-18T04:52:17.125Z,92.01
2022-12-18T04:54:44.642Z,91.96
2022-12-18T04:57:12.219Z,92.33
2022-12-18T04:59:39.773Z,91.77
2022-12-18T05:02:07.355Z,92.09
2022-12-18T05:04:34.939Z,91.98
2022-12-18T05:07:02.490Z,91.90
2022-12-18T05:09:30.577Z,91.96
2022-12-18T05:11:58.139Z,92.29
2022-12-18T05:14:25.654Z,92.27
2022-12-18T05:16:56.697Z,92.03
2022-12-18T05:19:26.858Z,92.57
2022-12-18T05:21:54.332Z,92.45
2022-12-18T05:24:22.048Z,92.30
2022-12-18T05:26:49.690Z,92.42
2022-12-18T05:29:17.295Z,92.52
2022-12-18T05:31:44.893Z,92.15
2022-12-18T05:34:12.472Z,92.60
2022-12-18T05:36:40.453Z,92.72
2022-12-18T05:39:08.094Z,92.64
2022-12-18T05:41:35.614Z,92.50
2022-12-18T05:44:03.376Z,92.59
2022-12-18T05:46:31.681Z,92.45
2022-12-18T05:49:02.433Z,92.53
2022-12-18T05:51:30.042Z,92.30
2022-12-18T05:53:57.521Z,92.18
2022-12-18T05:56:25.102Z,92.14
2022-12-18T05:58:54.655Z,91.87
2022-12-18T06:01:25.669Z,92.04
2022-12-18T06:03:53.895Z,92.24
2022-12-18T06:06:24.384Z,92.12
2022-12-18T06:08:52.574Z,92.50
2022-12-18T06:11:24.357Z,92.34
2022-12-18T06:13:58.891Z,92.24
2022-12-18T06:16:28.592Z,92.31
2022-12-18T06:19:00.845Z,92.32
2022-12-18T06:21:30.008Z,92.20
2022-12-18T06:23:57.562Z,92.28
2022-12-18T06:26:28.261Z,92.29
2022-12-18T06:28:56.480Z,92.12
2022-12-18T06:31:24.306Z,92.48
2022-12-18T06:33:51.957Z,92.41
2022-12-18T06:36:19.498Z,92.42
2022-12-18T06:38:47.162Z,92.20
2022-12-18T06:41:17.745Z,92.53
2022-12-18T06:43:45.535Z,92.20
2022-12-18T06:46:13.902Z,92.42
2022-12-18T06:48:41.556Z,92.46
2022-12-18T06:51:09.568Z,92.38
2022-12-18T06:53:37.369Z,92.44
2022-12-18T06:56:10.153Z,92.40
2022-12-18T06:58:39.750Z,92.25
2022-12-18T07:01:11.208Z,92.31
2022-12-18T07:03:41.153Z,92.45
2022-12-18T07:06:20.699Z,92.37
2022-12-18T07:08:49.344Z,92.35
2022-12-18T07:11:18.073Z,92.30
2022-12-18T07:13:46.637Z,91.70
2022-12-18T07:16:23.938Z,92.16
2022-12-18T07:18:53.597Z,91.73
2022-12-18T07:21:21.681Z,91.70
2022-12-18T07:23:49.631Z,91.50
2022-12-18T07:26:20.723Z,91.62
2022-12-18T07:28:49.112Z,91.76
2022-12-18T07:31:19.881Z,91.46
2022-12-18T07:33:49.887Z,91.62
2022-12-18T07:36:17.801Z,92.04
2022-12-18T07:38:48.481Z,92.24
2022-12-18T07:41:16.003Z,91.94
2022-12-18T07:43:43.895Z,91.89
2022-12-18T07:46:14.985Z,91.84
2022-12-18T07:48:49.566Z,92.02
2022-12-18T07:51:18.648Z,92.05
2022-12-18T07:53:46.901Z,91.82
2022-12-18T07:56:29.918Z,92.22
2022-12-18T07:58:59.709Z,91.85
2022-12-18T08:01:27.592Z,91.71
2022-12-18T08:03:55.370Z,91.89
2022-12-18T08:06:24.575Z,91.68
2022-12-18T08:08:53.981Z,91.61
2022-12-18T08:11:22.619Z,91.55
2022-12-18T08:13:50.139Z,91.67
2022-12-18T08:16:18.390Z,91.60
2022-12-18T08:18:46.365Z,91.66
2022-12-18T08:21:16.087Z,91.58
2022-12-18T08:23:44.434Z,91.72
2022-12-18T08:26:12.830Z,91.58
2022-12-18T08:28:41.650Z,91.64
2022-12-18T08:31:10.009Z,91.64
2022-12-18T08:33:39.424Z,91.92
2022-12-18T08:36:09.874Z,91.90
2022-12-18T08:38:37.537Z,92.07
2022-12-18T08:41:10.918Z,91.50
2022-12-18T08:43:57.354Z,92.15
2022-12-18T08:46:26.409Z,91.81
2022-12-18T08:48:55.495Z,91.93
2022-12-18T08:51:23.101Z,91.42
2022-12-18T08:53:50.694Z,91.71
2022-12-18T08:56:18.631Z,91.66
2022-12-18T08:58:46.274Z,91.75
2022-12-18T09:01:14.791Z,91.62
2022-12-18T09:03:42.884Z,91.61
2022-12-18T09:06:15.691Z,91.39
2022-12-18T09:08:44.943Z,91.46
2022-12-18T09:11:21.719Z,91.46
2022-12-18T09:13:50.315Z,91.57
2022-12-18T09:16:18.116Z,91.25
2022-12-18T09:18:46.090Z,91.00
2022-12-18T09:21:17.199Z,91.25
2022-12-18T09:23:50.012Z,91.54
2022-12-18T09:26:17.539Z,91.23
2022-12-18T09:28:45.180Z,91.14
2022-12-18T09:31:16.071Z,91.08
2022-12-18T09:33:43.757Z,91.13
2022-12-18T09:36:13.835Z,90.95
2022-12-18T09:38:42.661Z,91.03
2022-12-18T09:41:16.449Z,91.21
2022-12-18T09:43:49.686Z,91.03
2022-12-18T09:46:26.509Z,90.85
2022-12-18T09:48:59.963Z,90.63
2022-12-18T09:51:34.530Z,90.58
2022-12-18T09:54:06.952Z,90.35
2022-12-18T09:56:40.576Z,90.11
2022-12-18T09:59:21.340Z,90.41
2022-12-18T10:01:49.063Z,90.18
2022-12-18T10:04:17.022Z,89.95
2022-12-18T10:07:05.746Z,89.83
2022-12-18T10:10:07.721Z,89.71
2022-12-18T10:12:41.512Z,89.49
2022-12-18T10:15:20.843Z,89.78
2022-12-18T10:18:05.276Z,89.05
2022-12-18T10:20:38.920Z,88.99
2022-12-18T10:23:15.904Z,88.33
2022-12-18T10:26:01.416Z,87.93
2022-12-18T10:28:31.494Z,87.57
2022-12-18T10:30:59.811Z,86.19
2022-12-18T10:33:32.664Z,85.85
2022-12-18T10:36:01.217Z,85.05
2022-12-18T10:38:31.518Z,84.90
2022-12-18T10:41:21.697Z,83.84
2022-12-18T10:43:49.693Z,83.76
2022-12-18T10:46:21.135Z,83.21
2022-12-18T10:48:51.297Z,82.37
2022-12-18T10:51:32.513Z,82.19
2022-12-18T10:54:15.049Z,81.42
2022-12-18T10:56:44.290Z,80.89
2022-12-18T10:59:15.484Z,79.87
2022-12-18T11:01:59.682Z,79.06
2022-12-18T11:04:32.583Z,78.75
2022-12-18T11:07:01.588Z,78.83
2022-12-18T11:09:33.261Z,77.79
2022-12-18T11:12:04.000Z,77.43
2022-12-18T11:14:47.369Z,77.11
2022-12-18T11:17:26.998Z,77.13
2022-12-18T11:20:00.546Z,76.32
2022-12-18T11:22:33.624Z,76.19
2022-12-18T11:25:33.442Z,75.38
2022-12-18T11:28:03.793Z,75.22
2022-12-18T11:30:34.370Z,75.08
2022-12-18T11:33:17.727Z,74.11
2022-12-18T11:36:04.777Z,73.64
2022-12-18T11:38:38.607Z,73.32
2022-12-18T11:41:48.216Z,73.78
2022-12-18T11:44:47.817Z,72.11
2022-12-18T11:47:49.092Z,71.99
2022-12-18T11:50:24.802Z,71.12
2022-12-18T11:52:57.307Z,70.94
2022-12-18T11:55:59.240Z,70.49
2022-12-18T11:58:56.246Z,70.96
2022-12-18T12:01:32.383Z,70.95
2022-12-18T12:04:13.417Z,70.38
2022-12-18T12:06:50.097Z,70.34
2022-12-18T12:09:26.042Z,71.24
2022-12-18T12:12:18.061Z,72.04
2022-12-18T12:14:51.100Z,72.46
2022-12-18T12:17:39.007Z,72.01
2022-12-18T12:20:48.735Z,71.87
2022-12-18T12:23:50.323Z,71.73
2022-12-18T12:26:33.942Z,72.02
2022-12-18T12:29:01.442Z,73.05
2022-12-18T12:31:41.924Z,72.39
2022-12-18T12:34:18.279Z,71.74
2022-12-18T12:37:08.786Z,71.39
2022-12-18T12:39:42.521Z,70.95
2022-12-18T12:42:53.682Z,70.16
2022-12-18T12:45:54.744Z,69.85
2022-12-18T12:48:42.534Z,69.72
2022-12-18T12:51:26.074Z,70.11
2022-12-18T12:53:57.498Z,70.00
2022-12-18T12:56:31.069Z,69.89
2022-12-18T12:59:23.680Z,68.81
2022-12-18T13:01:59.446Z,68.97
2022-12-18T13:05:04.250Z,69.52
2022-12-18T13:07:52.117Z,69.23
2022-12-18T13:10:20.907Z,69.06
2022-12-18T13:13:02.694Z,68.44
2022-12-18T13:15:39.763Z,68.43
2022-12-18T13:18:10.668Z,67.91
2022-12-18T13:20:43.098Z,67.96
2022-12-18T13:23:25.416Z,67.66
2022-12-18T13:25:59.095Z,68.32
2022-12-18T13:28:48.592Z,67.34
2022-12-18T13:31:40.316Z,67.93
2022-12-18T13:34:26.085Z,68.54
2022-12-18T13:36:56.454Z,68.98
2022-12-18T13:39:35.016Z,69.32
2022-12-18T13:42:06.248Z,69.28
2022-12-18T13:44:42.038Z,69.01
2022-12-18T13:47:36.244Z,67.77
2022-12-18T13:50:21.815Z,66.90
2022-12-18T13:52:51.654Z,66.37
2022-12-18T13:55:21.118Z,67.06
2022-12-18T13:57:49.239Z,67.64
2022-12-18T14:00:19.961Z,67.73
2022-12-18T14:02:47.707Z,68.36
2022-12-18T14:05:26.234Z,68.51
2022-12-18T14:07:55.651Z,68.63
2022-12-18T14:10:47.720Z,69.75
2022-12-18T14:13:19.608Z,70.18
2022-12-18T14:15:50.019Z,70.52
2022-12-18T14:18:30.550Z,70.80
2022-12-18T14:21:00.872Z,70.95
2022-12-18T14:23:38.296Z,71.46
2022-12-18T14:26:30.247Z,71.91
2022-12-18T14:29:19.093Z,72.41
2022-12-18T14:31:47.828Z,72.63
2022-12-18T14:34:20.427Z,72.82
2022-12-18T14:36:55.082Z,73.43
2022-12-18T14:39:23.430Z,73.03
2022-12-18T14:41:51.447Z,73.38
2022-12-18T14:44:18.970Z,74.15
2022-12-18T14:46:48.364Z,74.57
2022-12-18T14:49:33.094Z,74.86
2022-12-18T14:52:04.086Z,74.92
2022-12-18T14:54:33.117Z,74.94
2022-12-18T14:57:27.558Z,75.65
2022-12-18T15:00:05.894Z,75.13
2022-12-18T15:02:42.665Z,75.69
2022-12-18T15:05:22.333Z,75.52
2022-12-18T15:07:52.832Z,76.06
2022-12-18T15:10:23.556Z,76.01
2022-12-18T15:12:56.810Z,76.46
2022-12-18T15:15:43.400Z,77.05
2022-12-18T15:18:11.550Z,77.19
2022-12-18T15:20:54.209Z,77.37
2022-12-18T15:23:47.351Z,77.87
2022-12-18T15:26:18.339Z,78.27
2022-12-18T15:29:04.030Z,78.47
2022-12-18T15:31:37.478Z,78.77
2022-12-18T15:34:13.416Z,78.68
2022-12-18T15:36:41.306Z,78.72
2022-12-18T15:39:12.974Z,79.26
2022-12-18T15:41:40.623Z,79.36
2022-12-18T15:44:25.817Z,79.31
2022-12-18T15:46:53.688Z,79.80
2022-12-18T15:49:21.367Z,79.79
2022-12-18T15:51:54.922Z,80.08
2022-12-18T15:54:42.603Z,80.16
2022-12-18T15:57:27.822Z,80.32
2022-12-18T15:59:59.181Z,79.55
2022-12-18T16:02:28.982Z,80.11
2022-12-18T16:04:57.367Z,79.76
2022-12-18T16:07:28.152Z,80.32
2022-12-18T16:09:59.059Z,81.09
2022-12-18T16:12:28.807Z,81.18
2022-12-18T16:14:56.324Z,81.54
2022-12-18T16:17:23.854Z,81.98
2022-12-18T16:19:51.444Z,82.92
2022-12-18T16:22:24.518Z,83.37
2022-12-18T16:24:53.685Z,83.32
2022-12-18T16:27:22.035Z,84.48
2022-12-18T16:29:49.627Z,84.23
2022-12-18T16:32:20.117Z,85.03
2022-12-18T16:34:48.148Z,85.03
2022-12-18T16:37:16.823Z,85.12
2022-12-18T16:39:45.707Z,85.73
2022-12-18T16:42:17.589Z,85.64
2022-12-18T16:44:46.636Z,86.08
2022-12-18T16:47:15.209Z,86.34
2022-12-18T16:49:45.987Z,86.63
2022-12-18T16:52:14.478Z,87.37
2022-12-18T16:54:42.044Z,87.20
2022-12-18T16:57:16.907Z,87.24
2022-12-18T16:59:45.944Z,87.38
2022-12-18T17:02:23.448Z,87.72
2022-12-18T17:04:57.892Z,87.65
2022-12-18T17:07:27.213Z,87.65
2022-12-18T17:09:55.139Z,88.23
2022-12-18T17:12:23.384Z,87.83
2022-12-18T17:14:50.985Z,87.97
2022-12-18T17:17:21.872Z,88.37
2022-12-18T17:19:51.999Z,88.17
2022-12-18T17:22:20.967Z,88.04
2022-12-18T17:24:48.486Z,88.48
2022-12-18T17:27:16.133Z,88.38
2022-12-18T17:29:47.719Z,88.50
2022-12-18T17:32:17.308Z,88.58
2022-12-18T17:34:44.870Z,88.69
2022-12-18T17:37:13.066Z,88.63
2022-12-18T17:39:40.629Z,89.01
2022-12-18T17:42:12.064Z,88.47
2022-12-18T17:44:44.076Z,88.51
2022-12-18T17:47:13.247Z,88.35
2022-12-18T17:49:41.229Z,88.69
2022-12-18T17:52:09.143Z,88.69
2022-12-18T17:54:39.861Z,88.58
2022-12-18T17:57:07.780Z,88.73
2022-12-18T17:59:35.436Z,88.56
2022-12-18T18:02:03.166Z,88.45
2022-12-18T18:04:30.823Z,88.15
2022-12-18T18:06:58.885Z,88.51
2022-12-18T18:09:26.485Z,88.38
2022-12-18T18:12:12.608Z,88.23
2022-12-18T18:14:40.294Z,88.49
2022-12-18T18:17:08.091Z,88.37
2022-12-18T18:19:35.828Z,88.33
2022-12-18T18:22:03.759Z,88.11
2022-12-18T18:24:33.394Z,87.94
2022-12-18T18:27:01.049Z,88.22
2022-12-18T18:29:32.321Z,88.05
2022-12-18T18:32:00.317Z,87.90
2022-12-18T18:34:31.369Z,87.96
2022-12-18T18:36:59.690Z,88.10
2022-12-18T18:39:27.886Z,87.91
2022-12-18T18:41:55.687Z,87.84
2022-12-18T18:44:25.944Z,87.56
2022-12-18T18:46:56.014Z,87.99
2022-12-18T18:49:27.169Z,87.76
2022-12-18T18:51:55.887Z,87.86
2022-12-18T18:54:23.958Z,87.59
2022-12-18T18:59:39.321Z,87.54
2022-12-18T19:02:09.444Z,87.32
2022-12-18T19:04:37.810Z,87.67
2022-12-18T19:07:12.824Z,87.71
2022-12-18T19:09:42.046Z,87.56
2022-12-18T19:12:28.046Z,87.61
2022-12-18T19:14:55.862Z,87.29
2022-12-18T19:17:29.415Z,87.46
2022-12-18T19:19:58.279Z,86.84
2022-12-18T19:22:25.776Z,87.50
2022-12-18T19:24:53.338Z,87.06
2022-12-18T19:27:20.979Z,87.68
2022-12-18T19:29:49.508Z,87.20
2022-12-18T19:32:17.086Z,87.04
2022-12-18T19:34:44.866Z,87.33
2022-12-18T19:37:14.820Z,87.32
2022-12-18T19:39:42.395Z,87.34
2022-12-18T19:42:09.976Z,87.40
2022-12-18T19:44:38.457Z,87.13
2022-12-18T19:47:06.020Z,87.13
2022-12-18T19:49:33.664Z,87.27
2022-12-18T19:52:01.835Z,87.48
2022-12-18T19:54:31.045Z,87.34
2022-12-18T19:56:58.704Z,87.38
2022-12-18T19:59:26.201Z,87.17
2022-12-18T20:01:54.436Z,87.30
2022-12-18T20:04:22.151Z,87.10
2022-12-18T20:06:51.911Z,87.09
2022-12-18T20:09:21.078Z,87.26
2022-12-18T20:11:49.418Z,86.69
2022-12-18T20:14:20.653Z,87.16
2022-12-18T20:16:52.598Z,87.30
2022-12-18T20:19:22.291Z,86.80
2022-12-18T20:21:50.260Z,86.93
2022-12-18T20:24:42.522Z,87.29
2022-12-18T20:27:15.198Z,87.16
2022-12-18T20:29:44.788Z,87.17
2022-12-18T20:32:12.318Z,86.80
2022-12-18T20:34:39.923Z,87.10
2022-12-18T20:37:08.480Z,86.75
2022-12-18T20:39:38.506Z,86.61
2022-12-18T20:42:07.135Z,86.69
2022-12-18T20:44:34.707Z,87.34
2022-12-18T20:47:08.529Z,86.80
2022-12-18T20:49:36.570Z,87.23
2022-12-18T20:52:06.098Z,86.87
2022-12-18T20:54:33.695Z,86.56
2022-12-18T20:57:01.268Z,86.79
2022-12-18T20:59:28.827Z,87.06
2022-12-18T21:01:56.440Z,86.78
2022-12-18T21:04:24.763Z,86.57
2022-12-18T21:07:00.557Z,86.99
2022-12-18T21:09:38.131Z,87.04
2022-12-18T21:12:36.339Z,86.80
2022-12-18T21:15:16.284Z,86.47
2022-12-18T21:17:44.411Z,87.06
2022-12-18T21:20:17.288Z,86.62
2022-12-18T21:22:45.594Z,87.29
2022-12-18T21:25:13.032Z,87.10
2022-12-18T21:27:41.223Z,86.94
2022-12-18T21:30:09.231Z,87.29
2022-12-18T21:32:36.895Z,86.96
2022-12-18T21:35:04.765Z,87.22
2022-12-18T21:37:32.406Z,86.77
2022-12-18T21:39:59.978Z,86.89
2022-12-18T21:42:46.394Z,87.38
2022-12-18T21:45:14.006Z,87.16
2022-12-18T21:47:41.549Z,87.52
2022-12-18T21:50:09.469Z,86.76
2022-12-18T21:52:37.043Z,87.47
2022-12-18T21:55:09.406Z,86.91
2022-12-18T21:57:39.413Z,87.13
2022-12-18T22:00:11.583Z,87.32
2022-12-18T22:02:49.591Z,87.72
2022-12-18T22:05:35.976Z,87.46
2022-12-18T22:08:03.605Z,87.68
2022-12-18T22:10:31.166Z,87.39
2022-12-18T22:12:58.768Z,87.20
2022-12-18T22:15:26.687Z,87.98
2022-12-18T22:17:56.987Z,87.91
2022-12-18T22:20:29.796Z,87.64
2022-12-18T22:22:58.695Z,87.87
2022-12-18T22:25:28.733Z,87.85
2022-12-18T22:28:14.811Z,88.87
2022-12-18T22:30:44.056Z,88.91
2022-12-18T22:33:11.669Z,88.39
2022-12-18T22:35:39.243Z,88.56
2022-12-18T22:38:07.467Z,88.53
2022-12-18T22:40:35.090Z,89.17
2022-12-18T22:43:02.665Z,89.17
2022-12-18T22:45:30.293Z,88.79
2022-12-18T22:47:57.799Z,89.19
2022-12-18T22:50:25.410Z,89.70
2022-12-18T22:52:53.097Z,89.16
2022-12-18T22:55:20.619Z,89.12
2022-12-18T22:57:49.166Z,89.80
2022-12-18T23:00:23.962Z,89.63
2022-12-18T23:02:59.981Z,89.29
2022-12-18T23:05:30.662Z,89.91
2022-12-18T23:07:58.849Z,89.21
2022-12-18T23:10:27.500Z,89.94
2022-12-18T23:12:55.194Z,89.32
2022-12-18T23:15:27.593Z,90.22
2022-12-18T23:18:00.210Z,89.41
2022-12-18T23:20:28.313Z,90.13
2022-12-18T23:22:55.793Z,90.18
2022-12-18T23:25:23.586Z,90.17
2022-12-18T23:27:51.114Z,90.22
2022-12-18T23:30:19.231Z,89.72
2022-12-18T23:32:47.110Z,90.05
2022-12-18T23:35:15.798Z,90.38
2022-12-18T23:38:00.466Z,89.92
2022-12-18T23:40:29.643Z,90.34
2022-12-18T23:42:57.551Z,90.13
2022-12-18T23:45:25.100Z,90.21
2022-12-18T23:47:52.649Z,89.86
2022-12-18T23:50:26.733Z,90.03
2022-12-18T23:52:59.442Z,90.58
2022-12-18T23:55:34.032Z,89.94
2022-12-18T23:58:01.614Z,90.73
